createdAt,value
2019-01-02T00:01:29.078Z,7.33
2019-01-02T00:04:19.900Z,7.32
2019-01-02T00:07:11.187Z,7.35
2019-01-02T00:10:04.365Z,7.29
2019-01-02T00:12:55.090Z,7.27
2019-01-02T00:15:49.174Z,7.37
2019-01-02T00:18:39.913Z,7.28
2019-01-02T00:21:30.347Z,7.15
2019-01-02T00:24:20.673Z,7.13
2019-01-02T00:27:12.561Z,7.02
2019-01-02T00:30:03.753Z,7.09
2019-01-02T00:32:54.803Z,7.12
2019-01-02T00:35:45.469Z,7.12
2019-01-02T00:38:35.847Z,7.04
2019-01-02T00:41:26.946Z,7.01
2019-01-02T00:44:17.606Z,6.94
2019-01-02T00:47:08.321Z,7.01
2019-01-02T00:49:58.707Z,7.08
2019-01-02T00:52:49.817Z,7.06
2019-01-02T00:55:40.425Z,7.10
2019-01-02T00:58:30.700Z,7.13
2019-01-02T01:01:21.784Z,7.08
2019-01-02T01:04:12.795Z,7.02
2019-01-02T01:07:03.242Z,6.88
2019-01-02T01:09:53.959Z,6.94
2019-01-02T01:12:45.313Z,6.93
2019-01-02T01:15:36.043Z,6.91
2019-01-02T01:18:27.630Z,6.98
2019-01-02T01:21:18.608Z,7.04
2019-01-02T01:24:09.504Z,7.01
2019-01-02T01:26:59.949Z,7.04
2019-01-02T01:29:52.001Z,7.13
2019-01-02T01:32:42.672Z,7.15
2019-01-02T01:35:33.262Z,7.12
2019-01-02T01:38:23.645Z,7.08
2019-01-02T01:41:14.541Z,7.00
2019-01-02T01:44:06.405Z,6.90
2019-01-02T01:46:56.760Z,6.88
2019-01-02T01:49:47.648Z,7.00
2019-01-02T01:52:38.323Z,7.01
2019-01-02T01:55:29.346Z,7.07
2019-01-02T01:58:20.524Z,7.01
2019-01-02T02:01:11.593Z,7.03
2019-01-02T02:04:02.415Z,7.04
2019-01-02T02:06:52.633Z,6.94
2019-01-02T02:09:43.232Z,6.95
2019-01-02T02:12:33.810Z,6.94
2019-01-02T02:15:24.158Z,6.94
2019-01-02T02:18:15.086Z,6.94
2019-01-02T02:21:05.837Z,6.93
2019-01-02T02:23:56.572Z,7.02
2019-01-02T02:26:46.983Z,7.03
2019-01-02T02:29:37.660Z,6.98
2019-01-02T02:32:28.187Z,6.97
2019-01-02T02:35:19.966Z,6.87
2019-01-02T02:38:11.056Z,6.79
2019-01-02T02:41:02.105Z,6.71
2019-01-02T02:43:53.039Z,6.65
2019-01-02T02:46:43.631Z,6.61
2019-01-02T02:49:34.164Z,6.63
2019-01-02T02:52:24.855Z,6.63
2019-01-02T02:55:18.508Z,6.60
2019-01-02T02:58:08.830Z,6.57
2019-01-02T03:00:59.187Z,6.67
2019-01-02T03:03:49.890Z,6.79
2019-01-02T03:06:40.712Z,6.81
2019-01-02T03:09:31.387Z,6.86
2019-01-02T03:12:21.864Z,6.89
2019-01-02T03:15:12.247Z,6.93
2019-01-02T03:18:02.860Z,6.87
2019-01-02T03:20:53.861Z,6.81
2019-01-02T03:23:44.633Z,6.83
2019-01-02T03:26:35.486Z,6.58
2019-01-02T03:29:26.428Z,6.65
2019-01-02T03:32:17.066Z,6.50
2019-01-02T03:35:08.541Z,6.42
2019-01-02T03:37:59.279Z,6.49
2019-01-02T03:40:49.892Z,6.53
2019-01-02T03:43:40.118Z,6.48
2019-01-02T03:46:30.612Z,6.60
2019-01-02T03:49:21.384Z,6.59
2019-01-02T03:52:11.998Z,6.56
2019-01-02T03:55:02.354Z,6.61
2019-01-02T03:57:53.053Z,6.61
2019-01-02T04:00:43.885Z,6.67
2019-01-02T04:03:34.512Z,6.68
2019-01-02T04:06:25.398Z,6.66
2019-01-02T04:09:16.038Z,6.66
2019-01-02T04:12:06.666Z,6.71
2019-01-02T04:14:56.954Z,6.72
2019-01-02T04:17:47.644Z,6.67
2019-01-02T04:20:38.319Z,6.74
2019-01-02T04:23:28.718Z,6.63
2019-01-02T04:26:18.853Z,6.54
2019-01-02T04:29:09.526Z,6.50
2019-01-02T04:32:00.195Z,6.60
2019-01-02T04:34:51.423Z,6.65
2019-01-02T04:37:41.885Z,6.67
2019-01-02T04:40:32.181Z,6.68
2019-01-02T04:43:23.775Z,6.64
2019-01-02T04:46:13.951Z,6.68
2019-01-02T04:49:04.230Z,6.60
2019-01-02T04:51:54.512Z,6.59
2019-01-02T04:54:45.125Z,6.60
2019-01-02T04:57:35.528Z,6.59
2019-01-02T05:00:26.126Z,6.56
2019-01-02T05:03:16.824Z,6.48
2019-01-02T05:06:07.433Z,6.45
2019-01-02T05:08:58.119Z,6.53
2019-01-02T05:11:48.678Z,6.57
2019-01-02T05:14:39.187Z,6.58
2019-01-02T05:17:29.778Z,6.60
2019-01-02T05:20:19.986Z,6.57
2019-01-02T05:23:10.733Z,6.69
2019-01-02T05:26:01.435Z,6.68
2019-01-02T05:28:51.968Z,6.67
2019-01-02T05:31:42.588Z,6.66
2019-01-02T05:34:34.976Z,6.64
2019-01-02T05:37:25.398Z,6.52
2019-01-02T05:40:23.976Z,6.44
2019-01-02T05:43:14.382Z,6.41
2019-01-02T05:46:05.305Z,6.25
2019-01-02T05:48:55.664Z,6.26
2019-01-02T05:51:46.391Z,6.35
2019-01-02T05:54:36.925Z,6.19
2019-01-02T05:57:27.262Z,6.10
2019-01-02T06:00:17.794Z,6.17
2019-01-02T06:03:08.452Z,6.09
2019-01-02T06:05:59.084Z,6.14
2019-01-02T06:08:49.759Z,6.19
2019-01-02T06:11:40.441Z,6.21
2019-01-02T06:14:32.054Z,6.31
2019-01-02T06:17:22.610Z,6.39
2019-01-02T06:20:15.057Z,6.49
2019-01-02T06:23:05.456Z,6.62
2019-01-02T06:25:56.008Z,6.66
2019-01-02T06:28:46.548Z,6.85
2019-01-02T06:31:36.906Z,7.34
2019-01-02T06:34:28.433Z,8.08
2019-01-02T06:37:18.747Z,9.03
2019-01-02T06:40:11.339Z,9.89
2019-01-02T06:43:01.987Z,10.27
2019-01-02T06:45:52.629Z,11.08
2019-01-02T06:48:43.795Z,11.70
2019-01-02T06:51:34.289Z,12.45
2019-01-02T06:54:24.857Z,12.82
2019-01-02T06:57:15.334Z,12.92
2019-01-02T07:00:08.459Z,12.40
2019-01-02T07:02:58.973Z,11.63
2019-01-02T07:05:49.568Z,11.28
2019-01-02T07:08:40.014Z,11.58
2019-01-02T07:11:30.601Z,11.97
2019-01-02T07:14:21.261Z,12.38
2019-01-02T07:17:14.536Z,13.18
2019-01-02T07:20:05.876Z,14.28
2019-01-02T07:22:56.403Z,14.92
2019-01-02T07:25:46.862Z,15.85
2019-01-02T07:28:37.354Z,16.09
2019-01-02T07:31:28.017Z,16.98
2019-01-02T07:35:05.289Z,18.10
2019-01-02T07:38:24.725Z,18.25
2019-01-02T07:42:11.538Z,18.58
2019-01-02T07:45:47.705Z,20.45
2019-01-02T07:49:34.332Z,20.87
2019-01-02T07:53:07.529Z,20.98
2019-01-02T07:56:33.795Z,20.83
2019-01-02T08:00:04.466Z,22.27
2019-01-02T08:03:17.533Z,21.77
2019-01-02T08:07:17.429Z,21.83
2019-01-02T08:10:43.629Z,21.38
2019-01-02T08:14:10.344Z,21.88
2019-01-02T08:17:38.863Z,22.68
2019-01-02T08:20:55.310Z,21.31
2019-01-02T08:24:18.635Z,20.97
2019-01-02T08:27:56.693Z,21.44
2019-01-02T08:30:58.808Z,22.14
2019-01-02T08:34:36.001Z,20.73
2019-01-02T08:37:45.851Z,20.91
2019-01-02T08:41:23.687Z,21.13
2019-01-02T08:45:07.151Z,20.87
2019-01-02T08:48:32.522Z,20.32
2019-01-02T08:52:04.534Z,17.80
2019-01-02T08:55:37.633Z,16.67
2019-01-02T08:59:09.700Z,15.51
2019-01-02T09:02:33.525Z,14.65
2019-01-02T09:06:23.475Z,13.97
2019-01-02T09:09:42.971Z,13.58
2019-01-02T09:13:20.170Z,12.96
2019-01-02T09:16:28.939Z,12.32
2019-01-02T09:20:09.737Z,12.57
2019-01-02T09:23:31.852Z,12.95
2019-01-02T09:27:15.349Z,12.58
2019-01-02T09:30:49.529Z,12.79
2019-01-02T09:34:02.984Z,13.13
2019-01-02T09:37:30.755Z,12.21
2019-01-02T09:40:45.127Z,11.96
2019-01-02T09:43:56.784Z,11.70
2019-01-02T09:47:27.751Z,11.61
2019-01-02T09:51:11.510Z,11.14
2019-01-02T09:54:45.270Z,11.33
2019-01-02T09:58:21.533Z,10.80
2019-01-02T10:02:01.929Z,10.64
2019-01-02T10:05:44.119Z,10.54
2019-01-02T10:09:12.143Z,10.52
2019-01-02T10:12:58.577Z,10.48
2019-01-02T10:16:33.084Z,10.59
2019-01-02T10:20:20.645Z,10.63
2019-01-02T10:24:00.997Z,10.56
2019-01-02T10:27:22.639Z,10.53
2019-01-02T10:30:56.725Z,10.47
2019-01-02T10:34:14.853Z,10.35
2019-01-02T10:37:15.832Z,10.39
2019-01-02T10:40:29.139Z,10.35
2019-01-02T10:43:35.935Z,10.09
2019-01-02T10:46:58.608Z,10.27
2019-01-02T10:50:14.439Z,10.36
2019-01-02T10:53:36.186Z,10.23
2019-01-02T10:56:56.064Z,10.16
2019-01-02T11:00:23.729Z,9.89
2019-01-02T11:04:10.415Z,9.84
2019-01-02T11:07:33.292Z,9.87
2019-01-02T11:10:48.942Z,9.80
2019-01-02T11:14:19.136Z,9.81
2019-01-02T11:18:09.131Z,9.76
2019-01-02T11:21:46.496Z,9.86
2019-01-02T11:25:31.989Z,9.88
2019-01-02T11:28:55.857Z,9.84
2019-01-02T11:32:44.050Z,9.83
2019-01-02T11:36:34.501Z,9.84
2019-01-02T11:40:17.360Z,9.70
2019-01-02T11:43:59.325Z,9.76
2019-01-02T11:46:49.426Z,9.62
2019-01-02T11:49:39.735Z,9.63
2019-01-02T11:52:30.349Z,9.56
2019-01-02T11:55:20.866Z,9.52
2019-01-02T11:58:11.489Z,9.49
2019-01-02T12:01:02.179Z,9.32
2019-01-02T12:03:52.586Z,9.31
2019-01-02T12:06:43.312Z,9.41
2019-01-02T12:09:33.748Z,9.44
2019-01-02T12:12:24.395Z,9.45
2019-01-02T12:15:15.193Z,9.37
2019-01-02T12:18:06.071Z,9.25
2019-01-02T12:20:56.564Z,9.33
2019-01-02T12:23:47.230Z,9.25
2019-01-02T12:26:37.588Z,9.29
2019-01-02T12:29:28.048Z,9.25
2019-01-02T12:32:18.445Z,9.17
2019-01-02T12:35:08.872Z,9.32
2019-01-02T12:37:59.072Z,9.20
2019-01-02T12:40:49.870Z,9.28
2019-01-02T12:43:43.067Z,9.29
2019-01-02T12:46:33.444Z,9.30
2019-01-02T12:49:23.680Z,9.26
2019-01-02T12:52:14.231Z,9.06
2019-01-02T12:55:05.253Z,9.07
2019-01-02T12:57:55.750Z,9.15
2019-01-02T13:00:50.267Z,9.15
2019-01-02T13:04:39.629Z,9.22
2019-01-02T13:08:20.139Z,9.28
2019-01-02T13:11:32.489Z,9.13
2019-01-02T13:14:49.499Z,9.12
2019-01-02T13:18:15.645Z,9.11
2019-01-02T13:21:47.792Z,9.05
2019-01-02T13:25:10.412Z,9.04
2019-01-02T13:28:23.681Z,9.02
2019-01-02T13:32:07.796Z,9.07
2019-01-02T13:35:19.317Z,9.14
2019-01-02T13:38:20.288Z,9.14
2019-01-02T13:41:36.246Z,9.12
2019-01-02T13:44:57.704Z,9.14
2019-01-02T13:48:38.339Z,9.13
2019-01-02T13:51:34.889Z,9.28
2019-01-02T13:54:27.456Z,9.18
2019-01-02T13:57:18.096Z,9.16
2019-01-02T14:00:09.587Z,9.22
2019-01-02T14:03:00.090Z,9.21
2019-01-02T14:05:51.425Z,9.09
2019-01-02T14:08:41.703Z,9.19
2019-01-02T14:11:32.163Z,9.21
2019-01-02T14:14:22.648Z,9.19
2019-01-02T14:17:13.142Z,9.14
2019-01-02T14:20:03.582Z,9.14
2019-01-02T14:22:53.712Z,9.08
2019-01-02T14:25:44.757Z,9.14
2019-01-02T14:28:35.341Z,9.07
2019-01-02T14:31:26.894Z,8.98
2019-01-02T14:34:17.675Z,8.90
2019-01-02T14:37:08.009Z,8.82
2019-01-02T14:39:58.805Z,8.78
2019-01-02T14:42:49.163Z,8.71
2019-01-02T14:45:40.830Z,8.58
2019-01-02T14:48:31.179Z,8.54
2019-01-02T14:51:21.683Z,8.44
2019-01-02T14:54:12.486Z,8.39
2019-01-02T14:57:03.517Z,8.38
2019-01-02T14:59:54.134Z,8.27
2019-01-02T15:02:44.726Z,8.26
2019-01-02T15:05:35.236Z,8.16
2019-01-02T15:08:25.636Z,8.10
2019-01-02T15:11:16.251Z,8.05
2019-01-02T15:14:07.071Z,8.06
2019-01-02T15:16:57.842Z,7.98
2019-01-02T15:19:48.611Z,7.88
2019-01-02T15:22:39.276Z,7.82
2019-01-02T15:25:29.674Z,7.79
2019-01-02T15:28:21.459Z,7.81
2019-01-02T15:31:12.000Z,7.70
2019-01-02T15:34:02.571Z,7.69
2019-01-02T15:36:53.203Z,7.66
2019-01-02T15:39:43.633Z,7.66
2019-01-02T15:42:33.809Z,7.61
2019-01-02T15:45:25.302Z,7.55
2019-01-02T15:48:15.872Z,7.54
2019-01-02T15:51:06.804Z,7.55
2019-01-02T15:53:57.179Z,7.33
2019-01-02T15:56:48.287Z,7.53
2019-01-02T15:59:38.664Z,7.48
2019-01-02T16:02:29.088Z,7.49
2019-01-02T16:05:19.501Z,7.47
2019-01-02T16:08:10.244Z,7.44
2019-01-02T16:11:00.604Z,7.37
2019-01-02T16:13:51.088Z,7.36
2019-01-02T16:16:42.424Z,7.35
2019-01-02T16:19:33.135Z,7.34
2019-01-02T16:22:23.695Z,7.33
2019-01-02T16:25:14.027Z,7.23
2019-01-02T16:28:04.644Z,7.14
2019-01-02T16:30:55.383Z,7.16
2019-01-02T16:33:45.860Z,7.30
2019-01-02T16:36:36.342Z,7.29
2019-01-02T16:39:27.848Z,7.37
2019-01-02T16:42:18.502Z,7.37
2019-01-02T16:45:09.301Z,7.39
2019-01-02T16:47:59.657Z,7.35
2019-01-02T16:50:50.268Z,7.50
2019-01-02T16:53:43.435Z,7.50
2019-01-02T16:56:34.134Z,7.51
2019-01-02T16:59:24.815Z,7.55
2019-01-02T17:02:15.448Z,7.49
2019-01-02T17:05:06.192Z,7.37
2019-01-02T17:07:56.670Z,7.35
2019-01-02T17:10:47.458Z,7.31
2019-01-02T17:13:37.989Z,7.28
2019-01-02T17:16:28.748Z,7.18
2019-01-02T17:19:19.436Z,7.22
2019-01-02T17:22:09.984Z,7.16
2019-01-02T17:25:00.619Z,7.18
2019-01-02T17:27:51.202Z,7.18
2019-01-02T17:30:41.527Z,7.20
2019-01-02T17:33:32.214Z,7.21
2019-01-02T17:36:22.948Z,7.23
2019-01-02T17:39:13.338Z,7.23
2019-01-02T17:42:03.737Z,7.28
2019-01-02T17:44:54.410Z,7.29
2019-01-02T17:47:45.106Z,7.27
2019-01-02T17:50:35.950Z,7.25
2019-01-02T17:53:27.969Z,7.27
2019-01-02T17:56:18.673Z,7.28
2019-01-02T17:59:09.032Z,7.37
2019-01-02T18:02:00.025Z,7.42
2019-01-02T18:04:52.527Z,7.42
2019-01-02T18:07:43.819Z,7.51
2019-01-02T18:10:34.064Z,7.49
2019-01-02T18:13:24.313Z,7.58
2019-01-02T18:16:14.781Z,7.55
2019-01-02T18:19:05.585Z,7.55
2019-01-02T18:21:56.166Z,7.56
2019-01-02T18:24:46.331Z,7.63
2019-01-02T18:27:37.216Z,7.61
2019-01-02T18:30:27.693Z,7.44
2019-01-02T18:33:18.449Z,7.53
2019-01-02T18:36:08.981Z,7.57
2019-01-02T18:38:59.709Z,7.61
2019-01-02T18:41:50.401Z,7.57
2019-01-02T18:44:40.995Z,7.54
2019-01-02T18:47:31.638Z,7.54
2019-01-02T18:50:22.162Z,7.56
2019-01-02T18:53:12.802Z,7.51
2019-01-02T18:56:03.518Z,7.46
2019-01-02T18:58:54.367Z,7.42
2019-01-02T19:01:45.080Z,7.40
2019-01-02T19:04:35.779Z,7.49
2019-01-02T19:07:26.897Z,7.43
2019-01-02T19:10:17.594Z,7.46
2019-01-02T19:13:08.262Z,7.46
2019-01-02T19:15:58.829Z,7.43
2019-01-02T19:18:49.214Z,7.30
2019-01-02T19:21:39.437Z,7.30
2019-01-02T19:24:30.298Z,7.35
2019-01-02T19:27:21.136Z,7.31
2019-01-02T19:30:11.357Z,7.31
2019-01-02T19:33:02.037Z,7.22
2019-01-02T19:35:52.344Z,7.17
2019-01-02T19:38:44.780Z,7.23
2019-01-02T19:41:35.432Z,7.16
2019-01-02T19:44:25.905Z,7.10
2019-01-02T19:47:16.480Z,7.13
2019-01-02T19:50:08.232Z,7.14
2019-01-02T19:52:58.497Z,7.10
2019-01-02T19:55:49.137Z,7.13
2019-01-02T19:58:39.655Z,7.08
2019-01-02T20:01:30.353Z,7.09
2019-01-02T20:04:20.627Z,7.02
2019-01-02T20:07:11.013Z,6.97
2019-01-02T20:10:01.549Z,6.93
2019-01-02T20:12:52.104Z,6.94
2019-01-02T20:15:42.907Z,6.97
2019-01-02T20:18:33.841Z,7.08
2019-01-02T20:21:24.572Z,7.07
2019-01-02T20:24:15.497Z,7.16
2019-01-02T20:27:05.753Z,7.15
2019-01-02T20:29:56.277Z,7.19
2019-01-02T20:32:46.932Z,7.23
2019-01-02T20:35:37.313Z,7.27
2019-01-02T20:38:27.768Z,7.29
2019-01-02T20:41:18.540Z,7.35
2019-01-02T20:44:08.995Z,7.32
2019-01-02T20:46:59.642Z,7.29
2019-01-02T20:49:50.291Z,7.31
2019-01-02T20:52:40.663Z,7.31
2019-01-02T20:55:31.153Z,7.29
2019-01-02T20:58:21.942Z,7.34
2019-01-02T21:01:12.720Z,7.38
2019-01-02T21:04:03.235Z,7.40
2019-01-02T21:06:53.695Z,7.43
2019-01-02T21:09:44.484Z,7.44
2019-01-02T21:12:35.890Z,7.37
2019-01-02T21:15:26.340Z,7.33
2019-01-02T21:18:16.855Z,7.38
2019-01-02T21:21:07.483Z,7.41
2019-01-02T21:23:58.105Z,7.36
2019-01-02T21:26:48.881Z,7.40
2019-01-02T21:29:39.214Z,7.37
2019-01-02T21:32:29.811Z,7.39
2019-01-02T21:35:20.621Z,7.36
2019-01-02T21:38:11.526Z,7.35
2019-01-02T21:41:02.294Z,7.39
2019-01-02T21:43:52.425Z,7.43
2019-01-02T21:46:42.777Z,7.48
2019-01-02T21:49:33.698Z,7.54
2019-01-02T21:52:24.092Z,7.56
2019-01-02T21:55:14.813Z,7.53
2019-01-02T21:58:05.382Z,7.50
2019-01-02T22:00:55.983Z,7.49
2019-01-02T22:03:46.371Z,7.43
2019-01-02T22:06:37.074Z,7.41
2019-01-02T22:09:27.673Z,7.46
2019-01-02T22:12:18.309Z,7.39
2019-01-02T22:15:10.869Z,7.41
2019-01-02T22:18:02.417Z,7.30
2019-01-02T22:20:55.790Z,7.17
2019-01-02T22:23:46.547Z,7.20
2019-01-02T22:26:36.900Z,7.21
2019-01-02T22:29:27.575Z,7.31
2019-01-02T22:32:18.204Z,7.32
2019-01-02T22:35:09.041Z,7.44
2019-01-02T22:37:59.726Z,7.49
2019-01-02T22:40:50.184Z,7.53
2019-01-02T22:43:41.019Z,7.62
2019-01-02T22:46:31.620Z,7.56
2019-01-02T22:49:22.249Z,7.65
2019-01-02T22:52:12.603Z,7.71
2019-01-02T22:55:03.531Z,7.65
2019-01-02T22:57:54.406Z,7.62
2019-01-02T23:01:02.239Z,7.53
2019-01-02T23:03:59.224Z,7.52
2019-01-02T23:07:07.344Z,7.38
2019-01-02T23:10:22.749Z,7.30
2019-01-02T23:13:32.025Z,7.23
2019-01-02T23:16:56.649Z,7.17
2019-01-02T23:20:18.262Z,6.96
2019-01-02T23:23:29.893Z,7.00
2019-01-02T23:26:38.137Z,6.96
2019-01-02T23:29:49.756Z,6.95
2019-01-02T23:32:58.593Z,6.94
2019-01-02T23:36:10.693Z,6.96
2019-01-02T23:39:26.412Z,6.98
2019-01-02T23:42:34.737Z,7.09
2019-01-02T23:45:56.794Z,7.19
2019-01-02T23:49:08.946Z,7.24
2019-01-02T23:52:21.051Z,7.20
2019-01-02T23:55:48.826Z,7.24
2019-01-02T23:58:58.210Z,7.25
